< < Back
Terminal Aerodrome Forecast


Current Version              Previous Versions:   1  2  3  4  5  6  7  8  9  

Terminal Aerodrome Forecast

955
FTUS44 KOHX 202300
TAFCSV
TAF
KCSV 202323Z 2100/2124 24002KT P6SM SCT150
     FM211500 27010KT P6SM SCT040=



Latest METAR

855
SAUS70 KWBC 210200 RRM
MTRCSV
METAR KCSV 210153Z AUTO 27003KT 10SM CLR 19/17 A3010 RMK AO2 SLP175
T01940167


USA.gov is the U.S. government's official web portal to all federal, state and local government web resources and services.